sensor_id;sensor_type;location;lat;lon;timestamp;pressure;altitude;pressure_sealevel;temperature;humidity
5879;BME280;2965;42.640;23.370;2023-02-03T05:01:46;94917.94;;;1.19;100.00
5879;BME280;2965;42.640;23.370;2023-02-03T05:04:12;94926.97;;;1.24;100.00
5879;BME280;2965;42.640;23.370;2023-02-03T05:06:37;94930.72;;;1.20;100.00
5879;BME280;2965;42.640;23.370;2023-02-03T05:09:04;94936.47;;;1.24;100.00
5879;BME280;2965;42.640;23.370;2023-02-03T05:11:29;94925.22;;;1.25;100.00
5879;BME280;2965;42.640;23.370;2023-02-03T05:13:55;94929.66;;;1.23;100.00
5879;BME280;2965;42.640;23.370;2023-02-03T05:16:20;94930.47;;;1.23;100.00
5879;BME280;2965;42.640;23.370;2023-02-03T05:18:46;94941.38;;;1.27;100.00
5879;BME280;2965;42.640;23.370;2023-02-03T05:21:11;94944.53;;;1.31;100.00
5879;BME280;2965;42.640;23.370;2023-02-03T05:23:37;94959.31;;;1.29;100.00
5879;BME280;2965;42.640;23.370;2023-02-03T05:26:03;94949.00;;;1.29;100.00
5879;BME280;2965;42.640;23.370;2023-02-03T05:28:29;94941.97;;;1.31;100.00
5879;BME280;2965;42.640;23.370;2023-02-03T05:30:57;94954.16;;;1.29;100.00
5879;BME280;2965;42.640;23.370;2023-02-03T05:33:23;94950.88;;;1.26;100.00
5879;BME280;2965;42.640;23.370;2023-02-03T05:35:48;94944.28;;;1.22;100.00
5879;BME280;2965;42.640;23.370;2023-02-03T05:38:13;94941.03;;;1.20;100.00
5879;BME280;2965;42.640;23.370;2023-02-03T05:40:39;94940.44;;;1.17;100.00
5879;BME280;2965;42.640;23.370;2023-02-03T05:43:23;94944.78;;;1.16;100.00
5879;BME280;2965;42.640;23.370;2023-02-03T05:45:48;94944.53;;;1.08;100.00
5879;BME280;2965;42.640;23.370;2023-02-03T05:48:13;94955.19;;;1.04;100.00
5879;BME280;2965;42.640;23.370;2023-02-03T05:50:39;94968.19;;;1.02;100.00
5879;BME280;2965;42.640;23.370;2023-02-03T05:53:05;94965.59;;;1.02;100.00
5879;BME280;2965;42.640;23.370;2023-02-03T05:55:31;94964.41;;;0.95;100.00
5879;BME280;2965;42.640;23.370;2023-02-03T05:57:57;94958.31;;;0.96;100.00
5879;BME280;2965;42.640;23.370;2023-02-03T06:00:24;94965.94;;;0.97;100.00
5879;BME280;2965;42.640;23.370;2023-02-03T06:02:54;94963.47;;;0.96;100.00
5879;BME280;2965;42.640;23.370;2023-02-03T06:05:21;94968.41;;;0.99;100.00
5879;BME280;2965;42.640;23.370;2023-02-03T06:07:46;94972.34;;;0.92;100.00
5879;BME280;2965;42.640;23.370;2023-02-03T06:10:12;94964.53;;;0.93;100.00
5879;BME280;2965;42.640;23.370;2023-02-03T06:12:38;94961.84;;;0.95;100.00
5879;BME280;2965;42.640;23.370;2023-02-03T06:15:04;94961.84;;;0.95;100.00
5879;BME280;2965;42.640;23.370;2023-02-03T06:17:29;94971.91;;;0.98;100.00
5879;BME280;2965;42.640;23.370;2023-02-03T06:19:55;94970.25;;;0.97;100.00
5879;BME280;2965;42.640;23.370;2023-02-03T06:22:20;94972.66;;;1.11;100.00
5879;BME280;2965;42.640;23.370;2023-02-03T06:27:21;94962.09;;;1.14;100.00
5879;BME280;2965;42.640;23.370;2023-02-03T06:29:46;94997.94;;;1.17;100.00
5879;BME280;2965;42.640;23.370;2023-02-03T06:32:12;94994.44;;;1.18;100.00
5879;BME280;2965;42.640;23.370;2023-02-03T06:34:37;94996.91;;;1.20;100.00
5879;BME280;2965;42.640;23.370;2023-02-03T06:37:02;94994.22;;;1.21;100.00
5879;BME280;2965;42.640;23.370;2023-02-03T06:39:28;94997.97;;;1.29;100.00
5879;BME280;2965;42.640;23.370;2023-02-03T06:41:53;95009.59;;;1.34;100.00
5879;BME280;2965;42.640;23.370;2023-02-03T06:44:20;95008.97;;;1.31;100.00
5879;BME280;2965;42.640;23.370;2023-02-03T06:46:45;95007.69;;;1.36;100.00
5879;BME280;2965;42.640;23.370;2023-02-03T06:49:10;94999.75;;;1.39;100.00
5879;BME280;2965;42.640;23.370;2023-02-03T06:51:36;95002.91;;;1.43;100.00
5879;BME280;2965;42.640;23.370;2023-02-03T06:54:01;95016.28;;;1.48;100.00
5879;BME280;2965;42.640;23.370;2023-02-03T06:56:29;94998.69;;;1.53;100.00
5879;BME280;2965;42.640;23.370;2023-02-03T06:58:55;94994.25;;;1.55;100.00
5879;BME280;2965;42.640;23.370;2023-02-03T07:01:21;95004.56;;;1.55;100.00
5879;BME280;2965;42.640;23.370;2023-02-03T07:03:47;95008.53;;;1.59;100.00
5879;BME280;2965;42.640;23.370;2023-02-03T07:06:13;94999.88;;;1.60;100.00
5879;BME280;2965;42.640;23.370;2023-02-03T07:08:39;94983.47;;;1.61;100.00
5879;BME280;2965;42.640;23.370;2023-02-03T07:11:05;95007.25;;;1.65;100.00
5879;BME280;2965;42.640;23.370;2023-02-03T07:13:30;94982.50;;;1.62;100.00
5879;BME280;2965;42.640;23.370;2023-02-03T07:15:56;94990.13;;;1.64;100.00
5879;BME280;2965;42.640;23.370;2023-02-03T07:18:21;94977.13;;;1.65;100.00
5879;BME280;2965;42.640;23.370;2023-02-03T07:20:51;94998.69;;;1.75;100.00
5879;BME280;2965;42.640;23.370;2023-02-03T07:23:19;94997.16;;;1.84;100.00
5879;BME280;2965;42.640;23.370;2023-02-03T07:25:44;95005.50;;;1.88;100.00
5879;BME280;2965;42.640;23.370;2023-02-03T07:28:10;95011.84;;;1.95;100.00
5879;BME280;2965;42.640;23.370;2023-02-03T07:30:35;95027.53;;;1.92;100.00
5879;BME280;2965;42.640;23.370;2023-02-03T07:33:01;95010.06;;;1.95;100.00
5879;BME280;2965;42.640;23.370;2023-02-03T07:35:26;95020.50;;;1.94;100.00
5879;BME280;2965;42.640;23.370;2023-02-03T07:37:52;95021.53;;;2.02;100.00
5879;BME280;2965;42.640;23.370;2023-02-03T07:40:18;95028.47;;;2.13;100.00
5879;BME280;2965;42.640;23.370;2023-02-03T07:42:45;95033.13;;;2.19;100.00
5879;BME280;2965;42.640;23.370;2023-02-03T07:45:12;95016.59;;;2.11;100.00
5879;BME280;2965;42.640;23.370;2023-02-03T07:47:39;95039.34;;;2.17;100.00
5879;BME280;2965;42.640;23.370;2023-02-03T07:50:05;95035.03;;;2.17;100.00
5879;BME280;2965;42.640;23.370;2023-02-03T07:52:30;95035.84;;;2.18;100.00
5879;BME280;2965;42.640;23.370;2023-02-03T07:54:56;95036.66;;;2.18;100.00
5879;BME280;2965;42.640;23.370;2023-02-03T07:57:21;95053.56;;;2.22;100.00
5879;BME280;2965;42.640;23.370;2023-02-03T07:59:46;95047.91;;;2.28;100.00
5879;BME280;2965;42.640;23.370;2023-02-03T08:02:12;95053.53;;;2.45;100.00
5879;BME280;2965;42.640;23.370;2023-02-03T08:04:37;95027.69;;;2.45;100.00
5879;BME280;2965;42.640;23.370;2023-02-03T08:07:03;95046.72;;;2.44;100.00
5879;BME280;2965;42.640;23.370;2023-02-03T08:09:28;95041.88;;;2.50;100.00
5879;BME280;2965;42.640;23.370;2023-02-03T08:11:53;95043.41;;;2.42;100.00
5879;BME280;2965;42.640;23.370;2023-02-03T08:14:19;95038.50;;;2.39;100.00
5879;BME280;2965;42.640;23.370;2023-02-03T08:16:44;95050.03;;;2.23;100.00
5879;BME280;2965;42.640;23.370;2023-02-03T08:19:10;95051.75;;;2.34;100.00
5879;BME280;2965;42.640;23.370;2023-02-03T08:21:35;95050.22;;;2.54;100.00
5879;BME280;2965;42.640;23.370;2023-02-03T08:24:01;95061.22;;;2.56;100.00
5879;BME280;2965;42.640;23.370;2023-02-03T08:26:26;95058.03;;;2.64;100.00
5879;BME280;2965;42.640;23.370;2023-02-03T08:28:51;95051.31;;;2.72;100.00
5879;BME280;2965;42.640;23.370;2023-02-03T08:31:17;95056.88;;;2.68;100.00
5879;BME280;2965;42.640;23.370;2023-02-03T08:33:43;95056.03;;;2.67;100.00
5879;BME280;2965;42.640;23.370;2023-02-03T08:36:08;95055.06;;;2.80;100.00
5879;BME280;2965;42.640;23.370;2023-02-03T08:38:35;95053.91;;;2.72;100.00
5879;BME280;2965;42.640;23.370;2023-02-03T08:41:01;95047.06;;;2.83;100.00
5879;BME280;2965;42.640;23.370;2023-02-03T08:43:32;95050.72;;;3.01;100.00
5879;BME280;2965;42.640;23.370;2023-02-03T08:46:01;95058.22;;;3.15;100.00
5879;BME280;2965;42.640;23.370;2023-02-03T08:48:27;95069.69;;;3.22;100.00
5879;BME280;2965;42.640;23.370;2023-02-03T08:50:52;95065.31;;;3.23;100.00
5879;BME280;2965;42.640;23.370;2023-02-03T08:53:17;95077.63;;;3.31;100.00
5879;BME280;2965;42.640;23.370;2023-02-03T08:55:43;95066.41;;;3.20;100.00
5879;BME280;2965;42.640;23.370;2023-02-03T08:58:08;95076.25;;;3.26;100.00
5879;BME280;2965;42.640;23.370;2023-02-03T09:00:33;95111.69;;;3.36;100.00
5879;BME280;2965;42.640;23.370;2023-02-03T09:02:59;95088.88;;;3.41;100.00
5879;BME280;2965;42.640;23.370;2023-02-03T09:05:24;95086.28;;;3.41;100.00
5879;BME280;2965;42.640;23.370;2023-02-03T09:07:50;95079.53;;;3.49;100.00
5879;BME280;2965;42.640;23.370;2023-02-03T09:10:15;95081.50;;;3.57;100.00
5879;BME280;2965;42.640;23.370;2023-02-03T09:12:40;95078.03;;;3.47;100.00
5879;BME280;2965;42.640;23.370;2023-02-03T09:15:06;95072.84;;;3.47;100.00
5879;BME280;2965;42.640;23.370;2023-02-03T09:17:31;95053.31;;;3.33;100.00
5879;BME280;2965;42.640;23.370;2023-02-03T09:19:57;95051.19;;;3.69;100.00
5879;BME280;2965;42.640;23.370;2023-02-03T09:22:22;95054.56;;;3.60;100.00
5879;BME280;2965;42.640;23.370;2023-02-03T09:24:47;95044.06;;;3.61;100.00
5879;BME280;2965;42.640;23.370;2023-02-03T09:27:15;95045.59;;;3.43;100.00
5879;BME280;2965;42.640;23.370;2023-02-03T09:29:40;95046.75;;;3.50;100.00
5879;BME280;2965;42.640;23.370;2023-02-03T09:32:06;95050.59;;;3.56;100.00
5879;BME280;2965;42.640;23.370;2023-02-03T09:34:34;95045.97;;;3.59;100.00
5879;BME280;2965;42.640;23.370;2023-02-03T09:36:59;95044.13;;;4.01;100.00
5879;BME280;2965;42.640;23.370;2023-02-03T09:39:25;95037.44;;;3.99;100.00
5879;BME280;2965;42.640;23.370;2023-02-03T09:42:07;95054.50;;;4.11;99.15
5879;BME280;2965;42.640;23.370;2023-02-03T09:47:34;95063.50;;;3.76;99.82
5879;BME280;2965;42.640;23.370;2023-02-03T09:50:04;95046.59;;;3.72;97.73
5879;BME280;2965;42.640;23.370;2023-02-03T09:52:34;95045.22;;;3.68;96.11
5879;BME280;2965;42.640;23.370;2023-02-03T09:58:17;95051.47;;;3.45;89.21
5879;BME280;2965;42.640;23.370;2023-02-03T10:01:00;95053.03;;;3.15;87.32
5879;BME280;2965;42.640;23.370;2023-02-03T10:03:41;95053.53;;;3.09;87.44
5879;BME280;2965;42.640;23.370;2023-02-03T10:06:13;95036.22;;;3.42;89.03
5879;BME280;2965;42.640;23.370;2023-02-03T10:08:42;95043.97;;;3.42;86.21
5879;BME280;2965;42.640;23.370;2023-02-03T10:14:09;95060.69;;;3.59;89.65
5879;BME280;2965;42.640;23.370;2023-02-03T10:19:24;95045.50;;;4.46;89.60
5879;BME280;2965;42.640;23.370;2023-02-03T10:21:54;95040.25;;;4.26;84.26
5879;BME280;2965;42.640;23.370;2023-02-03T10:24:38;95036.25;;;4.53;82.62
5879;BME280;2965;42.640;23.370;2023-02-03T10:27:07;95031.09;;;5.01;81.18
5879;BME280;2965;42.640;23.370;2023-02-03T10:29:41;95029.38;;;4.33;80.37
5879;BME280;2965;42.640;23.370;2023-02-03T10:32:09;95031.72;;;4.55;81.89
5879;BME280;2965;42.640;23.370;2023-02-03T10:34:36;95025.06;;;5.20;78.09
5879;BME280;2965;42.640;23.370;2023-02-03T10:37:24;95018.09;;;5.30;75.66
5879;BME280;2965;42.640;23.370;2023-02-03T10:39:51;95028.50;;;5.11;71.97
5879;BME280;2965;42.640;23.370;2023-02-03T10:42:18;95050.72;;;5.43;69.48
5879;BME280;2965;42.640;23.370;2023-02-03T10:44:48;95020.41;;;5.43;67.71
5879;BME280;2965;42.640;23.370;2023-02-03T10:47:36;95026.19;;;4.89;69.27
5879;BME280;2965;42.640;23.370;2023-02-03T10:50:08;95021.19;;;4.37;70.99
5879;BME280;2965;42.640;23.370;2023-02-03T10:52:37;95037.56;;;4.38;73.37
5879;BME280;2965;42.640;23.370;2023-02-03T10:55:27;95043.28;;;4.32;74.68
5879;BME280;2965;42.640;23.370;2023-02-03T10:57:54;95038.03;;;4.12;76.05
5879;BME280;2965;42.640;23.370;2023-02-03T11:00:31;95045.81;;;3.82;78.93
5879;BME280;2965;42.640;23.370;2023-02-03T11:05:26;95041.25;;;3.95;77.24
5879;BME280;2965;42.640;23.370;2023-02-03T11:07:52;95032.47;;;3.76;74.27
5879;BME280;2965;42.640;23.370;2023-02-03T11:10:36;95045.63;;;3.73;74.26
5879;BME280;2965;42.640;23.370;2023-02-03T11:13:22;95037.13;;;3.92;73.89
5879;BME280;2965;42.640;23.370;2023-02-03T11:15:55;95038.03;;;4.12;70.93
5879;BME280;2965;42.640;23.370;2023-02-03T11:21:12;95038.88;;;4.22;65.66
5879;BME280;2965;42.640;23.370;2023-02-03T11:23:48;95030.81;;;4.56;65.17
5879;BME280;2965;42.640;23.370;2023-02-03T11:26:18;95020.16;;;4.59;67.29
5879;BME280;2965;42.640;23.370;2023-02-03T11:28:46;95023.38;;;4.42;69.69
5879;BME280;2965;42.640;23.370;2023-02-03T11:31:16;95015.16;;;4.17;69.44
5879;BME280;2965;42.640;23.370;2023-02-03T11:33:46;95016.69;;;3.89;70.59
5879;BME280;2965;42.640;23.370;2023-02-03T11:36:12;95010.47;;;3.71;68.35
5879;BME280;2965;42.640;23.370;2023-02-03T11:38:38;95003.22;;;3.86;70.49
5879;BME280;2965;42.640;23.370;2023-02-03T11:41:14;94992.03;;;4.45;67.13
5879;BME280;2965;42.640;23.370;2023-02-03T11:43:40;94986.72;;;5.04;66.21
5879;BME280;2965;42.640;23.370;2023-02-03T11:46:06;94979.66;;;5.63;64.52
5879;BME280;2965;42.640;23.370;2023-02-03T11:48:48;94976.16;;;5.45;60.84
5879;BME280;2965;42.640;23.370;2023-02-03T12:07:29;94989.84;;;5.74;56.22
5879;BME280;2965;42.640;23.370;2023-02-03T12:13:09;94983.84;;;5.37;56.55
5879;BME280;2965;42.640;23.370;2023-02-03T12:15:47;94981.28;;;5.64;55.12
5879;BME280;2965;42.640;23.370;2023-02-03T12:21:03;94979.50;;;6.93;53.95
5879;BME280;2965;42.640;23.370;2023-02-03T12:26:22;94981.59;;;5.98;52.31
5879;BME280;2965;42.640;23.370;2023-02-03T12:29:03;94976.13;;;5.54;54.01
5879;BME280;2965;42.640;23.370;2023-02-03T12:34:31;94969.69;;;4.63;54.62
5879;BME280;2965;42.640;23.370;2023-02-03T12:37:21;94968.72;;;4.64;55.03
5879;BME280;2965;42.640;23.370;2023-02-03T12:39:54;94975.97;;;4.90;54.90
5879;BME280;2965;42.640;23.370;2023-02-03T12:42:36;94985.22;;;5.12;54.60
5879;BME280;2965;42.640;23.370;2023-02-03T12:45:12;94972.09;;;5.32;54.48
5879;BME280;2965;42.640;23.370;2023-02-03T12:47:54;94949.41;;;6.09;52.91
5879;BME280;2965;42.640;23.370;2023-02-03T12:50:32;94950.78;;;6.31;53.18
5879;BME280;2965;42.640;23.370;2023-02-03T12:55:38;94941.59;;;6.37;51.58
5879;BME280;2965;42.640;23.370;2023-02-03T12:58:19;94911.28;;;6.27;53.25
5879;BME280;2965;42.640;23.370;2023-02-03T13:01:00;94921.78;;;6.36;53.22
5879;BME280;2965;42.640;23.370;2023-02-03T13:09:24;94935.06;;;6.32;52.84
5879;BME280;2965;42.640;23.370;2023-02-03T13:11:59;94914.66;;;6.38;52.53
5879;BME280;2965;42.640;23.370;2023-02-03T13:16:54;94927.41;;;6.31;55.25
5879;BME280;2965;42.640;23.370;2023-02-03T13:19:29;94926.94;;;5.53;57.94
5879;BME280;2965;42.640;23.370;2023-02-03T13:21:59;94921.59;;;5.64;58.39
5879;BME280;2965;42.640;23.370;2023-02-03T13:24:26;94924.91;;;5.94;58.92
5879;BME280;2965;42.640;23.370;2023-02-03T13:30:03;94927.56;;;5.74;58.89
5879;BME280;2965;42.640;23.370;2023-02-03T13:35:44;94934.09;;;4.85;63.39
5879;BME280;2965;42.640;23.370;2023-02-03T13:41:26;94943.06;;;5.00;63.63
5879;BME280;2965;42.640;23.370;2023-02-03T13:43:56;94930.25;;;5.55;62.31
5879;BME280;2965;42.640;23.370;2023-02-03T13:46:29;94934.16;;;5.69;60.20
5879;BME280;2965;42.640;23.370;2023-02-03T13:48:58;94920.03;;;5.81;59.30
5879;BME280;2965;42.640;23.370;2023-02-03T13:51:27;94933.63;;;5.93;59.68
5879;BME280;2965;42.640;23.370;2023-02-03T13:54:01;94931.16;;;6.01;60.48
5879;BME280;2965;42.640;23.370;2023-02-03T13:56:28;94934.00;;;5.70;60.03
5879;BME280;2965;42.640;23.370;2023-02-03T14:01:40;94938.03;;;4.50;65.39
5879;BME280;2965;42.640;23.370;2023-02-03T14:04:08;94948.25;;;4.32;67.94
5879;BME280;2965;42.640;23.370;2023-02-03T14:06:55;94953.84;;;4.47;67.72
5879;BME280;2965;42.640;23.370;2023-02-03T14:09:32;94951.66;;;5.10;66.88
5879;BME280;2965;42.640;23.370;2023-02-03T14:12:12;94947.63;;;5.35;65.63
5879;BME280;2965;42.640;23.370;2023-02-03T14:20:03;94947.31;;;5.95;62.45
5879;BME280;2965;42.640;23.370;2023-02-03T14:22:30;94939.28;;;5.78;62.71
5879;BME280;2965;42.640;23.370;2023-02-03T14:24:56;94939.19;;;5.70;62.51
5879;BME280;2965;42.640;23.370;2023-02-03T14:27:28;94944.53;;;5.12;64.63
5879;BME280;2965;42.640;23.370;2023-02-03T14:32:48;94935.34;;;4.61;68.90
5879;BME280;2965;42.640;23.370;2023-02-03T14:35:20;94941.88;;;4.65;67.44
5879;BME280;2965;42.640;23.370;2023-02-03T14:37:51;94940.91;;;4.47;68.14
5879;BME280;2965;42.640;23.370;2023-02-03T14:54:02;94939.28;;;3.76;67.16
5879;BME280;2965;42.640;23.370;2023-02-03T14:59:17;94933.97;;;3.38;67.02
5879;BME280;2965;42.640;23.370;2023-02-03T15:04:22;94928.47;;;3.31;67.13
5879;BME280;2965;42.640;23.370;2023-02-03T15:06:50;94919.47;;;3.25;68.32
5879;BME280;2965;42.640;23.370;2023-02-03T15:11:50;94912.88;;;3.12;71.16
5879;BME280;2965;42.640;23.370;2023-02-03T15:14:24;94901.16;;;3.08;72.52
5879;BME280;2965;42.640;23.370;2023-02-03T15:17:10;94889.28;;;3.05;72.42
5879;BME280;2965;42.640;23.370;2023-02-03T15:19:41;94888.91;;;3.10;71.61
5879;BME280;2965;42.640;23.370;2023-02-03T15:22:27;94877.22;;;3.06;71.33
5879;BME280;2965;42.640;23.370;2023-02-03T15:24:58;94879.91;;;3.04;71.73
5879;BME280;2965;42.640;23.370;2023-02-03T15:27:26;94882.63;;;3.02;73.13
5879;BME280;2965;42.640;23.370;2023-02-03T15:29:53;94875.50;;;2.95;73.03
5879;BME280;2965;42.640;23.370;2023-02-03T15:32:40;94874.13;;;2.91;72.67
5879;BME280;2965;42.640;23.370;2023-02-03T15:35:15;94874.13;;;2.91;71.87
5879;BME280;2965;42.640;23.370;2023-02-03T15:37:50;94866.13;;;2.94;70.99
5879;BME280;2965;42.640;23.370;2023-02-03T15:40:21;94870.03;;;2.88;69.40
5879;BME280;2965;42.640;23.370;2023-02-03T15:43:01;94872.38;;;2.70;68.14
5879;BME280;2965;42.640;23.370;2023-02-03T15:58:54;94855.72;;;2.42;67.84
5879;BME280;2965;42.640;23.370;2023-02-03T16:01:23;94852.84;;;2.36;68.18
5879;BME280;2965;42.640;23.370;2023-02-03T16:03:52;94855.22;;;2.27;69.02
5879;BME280;2965;42.640;23.370;2023-02-03T16:06:31;94844.38;;;2.34;67.43
5879;BME280;2965;42.640;23.370;2023-02-03T16:09:03;94849.81;;;2.31;69.30
5879;BME280;2965;42.640;23.370;2023-02-03T16:11:36;94843.13;;;2.28;69.25
5879;BME280;2965;42.640;23.370;2023-02-03T16:14:04;94839.50;;;2.31;69.57
5879;BME280;2965;42.640;23.370;2023-02-03T16:16:39;94838.22;;;2.25;69.52
5879;BME280;2965;42.640;23.370;2023-02-03T16:19:15;94831.13;;;2.17;70.89
5879;BME280;2965;42.640;23.370;2023-02-03T16:22:01;94838.75;;;2.08;71.73
5879;BME280;2965;42.640;23.370;2023-02-03T16:24:42;94823.78;;;2.01;73.46
5879;BME280;2965;42.640;23.370;2023-02-03T16:33:03;94811.53;;;2.36;63.08
5879;BME280;2965;42.640;23.370;2023-02-03T16:35:55;94801.78;;;2.39;64.64
5879;BME280;2965;42.640;23.370;2023-02-03T16:41:30;94797.00;;;2.35;68.92
5879;BME280;2965;42.640;23.370;2023-02-03T16:44:14;94782.63;;;2.21;67.13
5879;BME280;2965;42.640;23.370;2023-02-03T16:46:58;94777.72;;;2.18;67.67
5879;BME280;2965;42.640;23.370;2023-02-03T16:49:42;94774.75;;;2.22;67.45
5879;BME280;2965;42.640;23.370;2023-02-03T16:52:26;94772.28;;;2.42;65.67
5879;BME280;2965;42.640;23.370;2023-02-03T16:54:51;94758.47;;;2.22;64.77
5879;BME280;2965;42.640;23.370;2023-02-03T16:57:16;94765.94;;;2.25;61.15
5879;BME280;2965;42.640;23.370;2023-02-03T16:59:42;94756.25;;;2.17;61.34
5879;BME280;2965;42.640;23.370;2023-02-03T17:02:09;94754.59;;;2.16;63.07
5879;BME280;2965;42.640;23.370;2023-02-03T17:04:34;94756.25;;;2.17;61.26
5879;BME280;2965;42.640;23.370;2023-02-03T17:06:59;94755.16;;;2.20;61.50
5879;BME280;2965;42.640;23.370;2023-02-03T17:09:27;94749.00;;;2.32;60.20
5879;BME280;2965;42.640;23.370;2023-02-03T17:11:52;94747.31;;;2.21;62.69
5879;BME280;2965;42.640;23.370;2023-02-03T17:14:18;94748.22;;;2.41;58.77
5879;BME280;2965;42.640;23.370;2023-02-03T17:16:43;94753.09;;;2.35;61.67
5879;BME280;2965;42.640;23.370;2023-02-03T17:19:09;94746.28;;;2.34;61.68
5879;BME280;2965;42.640;23.370;2023-02-03T17:21:35;94751.72;;;2.31;62.49
5879;BME280;2965;42.640;23.370;2023-02-03T17:24:00;94752.84;;;2.38;60.37
5879;BME280;2965;42.640;23.370;2023-02-03T17:26:26;94748.81;;;2.45;59.82
5879;BME280;2965;42.640;23.370;2023-02-03T17:28:51;94738.75;;;2.51;59.24
5879;BME280;2965;42.640;23.370;2023-02-03T17:31:18;94736.31;;;2.50;59.38
5879;BME280;2965;42.640;23.370;2023-02-03T17:33:44;94736.88;;;2.53;58.41
5879;BME280;2965;42.640;23.370;2023-02-03T17:36:12;94730.13;;;2.62;57.36
5879;BME280;2965;42.640;23.370;2023-02-03T17:38:44;94727.44;;;2.73;57.42
5879;BME280;2965;42.640;23.370;2023-02-03T17:41:20;94722.84;;;2.77;57.38
5879;BME280;2965;42.640;23.370;2023-02-03T17:43:47;94719.25;;;2.68;57.10
5879;BME280;2965;42.640;23.370;2023-02-03T17:46:16;94702.72;;;2.81;55.73
5879;BME280;2965;42.640;23.370;2023-02-03T17:48:41;94699.75;;;2.95;55.09
5879;BME280;2965;42.640;23.370;2023-02-03T17:51:08;94710.91;;;2.86;58.48
5879;BME280;2965;42.640;23.370;2023-02-03T17:53:35;94697.03;;;2.87;59.89
5879;BME280;2965;42.640;23.370;2023-02-03T17:56:08;94694.00;;;2.82;60.94
5879;BME280;2965;42.640;23.370;2023-02-03T17:58:34;94691.28;;;2.73;61.41
5879;BME280;2965;42.640;23.370;2023-02-03T18:00:59;94683.94;;;2.78;60.99
5879;BME280;2965;42.640;23.370;2023-02-03T18:03:25;94682.31;;;2.77;61.59
5879;BME280;2965;42.640;23.370;2023-02-03T18:05:51;94681.91;;;2.72;61.32
5879;BME280;2965;42.640;23.370;2023-02-03T18:08:17;94679.84;;;2.66;62.93
5879;BME280;2965;42.640;23.370;2023-02-03T18:10:42;94674.34;;;2.50;64.91
5879;BME280;2965;42.640;23.370;2023-02-03T18:13:08;94663.47;;;2.56;67.35
5879;BME280;2965;42.640;23.370;2023-02-03T18:15:33;94658.19;;;2.48;65.75
5879;BME280;2965;42.640;23.370;2023-02-03T18:18:02;94659.00;;;2.58;64.93
5879;BME280;2965;42.640;23.370;2023-02-03T18:20:27;94658.06;;;2.59;65.18
5879;BME280;2965;42.640;23.370;2023-02-03T18:22:52;94661.06;;;2.64;64.86
5879;BME280;2965;42.640;23.370;2023-02-03T18:25:18;94653.72;;;2.69;65.76
5879;BME280;2965;42.640;23.370;2023-02-03T18:27:44;94651.44;;;2.66;66.73
5879;BME280;2965;42.640;23.370;2023-02-03T18:30:10;94662.97;;;2.62;66.17
5879;BME280;2965;42.640;23.370;2023-02-03T18:32:36;94653.72;;;2.60;67.06
5879;BME280;2965;42.640;23.370;2023-02-03T18:35:02;94655.59;;;2.48;68.88
5879;BME280;2965;42.640;23.370;2023-02-03T18:37:27;94652.31;;;2.46;69.01
5879;BME280;2965;42.640;23.370;2023-02-03T18:39:53;94655.59;;;2.48;69.49
5879;BME280;2965;42.640;23.370;2023-02-03T18:42:18;94652.56;;;2.43;71.90
5879;BME280;2965;42.640;23.370;2023-02-03T18:44:44;94653.63;;;2.31;73.00
5879;BME280;2965;42.640;23.370;2023-02-03T18:47:09;94650.59;;;2.25;74.64
5879;BME280;2965;42.640;23.370;2023-02-03T18:49:35;94649.72;;;2.15;76.03
5879;BME280;2965;42.640;23.370;2023-02-03T18:52:00;94656.53;;;2.16;75.55
5879;BME280;2965;42.640;23.370;2023-02-03T18:54:26;94661.78;;;2.05;78.78
5879;BME280;2965;42.640;23.370;2023-02-03T18:56:53;94665.38;;;1.93;81.08
5879;BME280;2965;42.640;23.370;2023-02-03T18:59:19;94652.94;;;1.56;84.35
5879;BME280;2965;42.640;23.370;2023-02-03T19:01:44;94658.31;;;1.53;87.47
5879;BME280;2965;42.640;23.370;2023-02-03T19:04:11;94666.53;;;1.26;89.87
5879;BME280;2965;42.640;23.370;2023-02-03T19:06:36;94663.78;;;1.39;89.29
5879;BME280;2965;42.640;23.370;2023-02-03T19:09:09;94642.22;;;1.40;88.44
5879;BME280;2965;42.640;23.370;2023-02-03T19:11:35;94644.75;;;1.51;88.79
5879;BME280;2965;42.640;23.370;2023-02-03T19:14:00;94630.28;;;1.39;88.00
5879;BME280;2965;42.640;23.370;2023-02-03T19:16:26;94636.44;;;1.47;88.71
5879;BME280;2965;42.640;23.370;2023-02-03T19:18:51;94628.56;;;1.49;87.78
5879;BME280;2965;42.640;23.370;2023-02-03T19:21:17;94613.53;;;1.54;88.76
5879;BME280;2965;42.640;23.370;2023-02-03T19:23:43;94610.13;;;1.33;91.73
5879;BME280;2965;42.640;23.370;2023-02-03T19:26:09;94600.72;;;1.22;93.40
5879;BME280;2965;42.640;23.370;2023-02-03T19:28:34;94590.28;;;1.23;94.60
5879;BME280;2965;42.640;23.370;2023-02-03T19:31:06;94581.34;;;1.27;93.77
5879;BME280;2965;42.640;23.370;2023-02-03T19:33:32;94583.72;;;1.19;95.63
5879;BME280;2965;42.640;23.370;2023-02-03T19:35:57;94574.13;;;1.21;96.16
5879;BME280;2965;42.640;23.370;2023-02-03T19:38:23;94573.25;;;1.11;96.10
5879;BME280;2965;42.640;23.370;2023-02-03T19:40:48;94577.59;;;1.11;97.12
5879;BME280;2965;42.640;23.370;2023-02-03T19:43:13;94569.47;;;1.15;96.26
5879;BME280;2965;42.640;23.370;2023-02-03T19:45:39;94564.78;;;1.20;95.43
5879;BME280;2965;42.640;23.370;2023-02-03T19:48:05;94573.69;;;1.16;94.76
5879;BME280;2965;42.640;23.370;2023-02-03T19:50:31;94573.50;;;1.08;95.00
5879;BME280;2965;42.640;23.370;2023-02-03T19:52:56;94574.25;;;1.20;94.42
5879;BME280;2965;42.640;23.370;2023-02-03T19:55:22;94566.91;;;1.15;96.15
5879;BME280;2965;42.640;23.370;2023-02-03T19:57:47;94560.91;;;1.15;97.06
5879;BME280;2965;42.640;23.370;2023-02-03T20:00:14;94558.41;;;1.24;96.34
5879;BME280;2965;42.640;23.370;2023-02-03T20:02:40;94560.72;;;1.27;97.32
5879;BME280;2965;42.640;23.370;2023-02-03T20:05:06;94563.38;;;1.16;97.82
5879;BME280;2965;42.640;23.370;2023-02-03T20:07:31;94560.72;;;1.27;98.15
5879;BME280;2965;42.640;23.370;2023-02-03T20:09:58;94560.50;;;1.31;97.99
5879;BME280;2965;42.640;23.370;2023-02-03T20:12:24;94565.41;;;1.34;98.95
5879;BME280;2965;42.640;23.370;2023-02-03T20:14:49;94556.72;;;1.35;100.00
5879;BME280;2965;42.640;23.370;2023-02-03T20:17:15;94558.97;;;1.49;99.13
5879;BME280;2965;42.640;23.370;2023-02-03T20:19:40;94558.81;;;1.50;99.48
5879;BME280;2965;42.640;23.370;2023-02-03T20:22:06;94557.84;;;1.42;99.14
5879;BME280;2965;42.640;23.370;2023-02-03T20:24:31;94559.72;;;1.40;99.67
5879;BME280;2965;42.640;23.370;2023-02-03T20:26:56;94555.09;;;1.34;100.00
5879;BME280;2965;42.640;23.370;2023-02-03T20:29:22;94548.78;;;1.26;100.00